createdAt,value
2019-03-31T00:01:37.897Z,27.93
2019-03-31T00:04:05.284Z,25.63
2019-03-31T00:06:32.702Z,21.60
2019-03-31T00:09:00.101Z,32.00
2019-03-31T00:11:27.515Z,29.20
2019-03-31T00:13:54.910Z,25.83
2019-03-31T00:16:22.305Z,21.77
2019-03-31T00:18:49.718Z,27.23
2019-03-31T00:21:17.104Z,27.47
2019-03-31T00:23:44.520Z,28.17
2019-03-31T00:26:11.908Z,32.27
2019-03-31T00:28:39.328Z,25.57
2019-03-31T00:31:07.058Z,32.33
2019-03-31T00:33:34.481Z,25.83
2019-03-31T00:36:01.872Z,26.17
2019-03-31T00:38:29.285Z,24.67
2019-03-31T00:40:56.677Z,28.73
2019-03-31T00:43:24.101Z,24.20
2019-03-31T00:45:51.486Z,26.83
2019-03-31T00:48:18.909Z,34.87
2019-03-31T00:50:46.304Z,28.67
2019-03-31T00:53:13.718Z,26.87
2019-03-31T00:55:41.110Z,23.93
2019-03-31T00:58:08.528Z,31.70
2019-03-31T01:00:46.471Z,23.73
2019-03-31T01:03:14.261Z,27.40
2019-03-31T01:05:42.021Z,29.30
2019-03-31T01:08:09.806Z,40.13
2019-03-31T01:10:37.270Z,37.70
2019-03-31T01:13:05.455Z,32.93
2019-03-31T01:15:34.088Z,27.13
2019-03-31T01:18:01.640Z,29.07
2019-03-31T01:20:29.034Z,28.23
2019-03-31T01:22:56.613Z,31.50
2019-03-31T01:25:24.537Z,29.73
2019-03-31T01:27:52.021Z,25.40
2019-03-31T01:30:20.158Z,32.60
2019-03-31T01:32:47.748Z,33.53
2019-03-31T01:35:15.213Z,27.70
2019-03-31T01:37:42.702Z,26.17
2019-03-31T01:40:10.153Z,33.43
2019-03-31T01:42:37.572Z,24.20
2019-03-31T01:45:05.834Z,27.33
2019-03-31T01:47:33.234Z,32.70
2019-03-31T01:50:00.650Z,29.63
2019-03-31T01:52:28.032Z,39.00
2019-03-31T01:54:55.447Z,34.03
2019-03-31T01:57:22.839Z,27.73
2019-03-31T01:59:50.249Z,27.73
2019-03-31T02:02:19.345Z,30.57
2019-03-31T02:04:46.834Z,34.93
2019-03-31T02:07:14.225Z,32.00
2019-03-31T02:09:41.649Z,30.50
2019-03-31T02:12:09.028Z,29.03
2019-03-31T02:14:36.446Z,35.53
2019-03-31T02:17:03.844Z,29.67
2019-03-31T02:19:31.249Z,27.57
2019-03-31T02:21:58.635Z,25.00
2019-03-31T02:24:26.062Z,28.43
2019-03-31T02:26:53.454Z,28.23
2019-03-31T02:29:20.886Z,25.50
2019-03-31T02:31:48.266Z,27.10
2019-03-31T02:34:15.687Z,28.13
2019-03-31T02:36:43.156Z,28.70
2019-03-31T02:39:10.574Z,26.20
2019-03-31T02:41:37.960Z,25.83
2019-03-31T02:44:05.378Z,27.10
2019-03-31T02:46:32.773Z,30.03
2019-03-31T02:49:00.273Z,22.40
2019-03-31T02:51:27.655Z,35.60
2019-03-31T02:53:55.146Z,26.00
2019-03-31T02:56:22.901Z,20.77
2019-03-31T02:58:51.539Z,28.27
2019-03-31T03:01:20.182Z,22.57
2019-03-31T03:03:47.661Z,29.30
2019-03-31T03:06:15.224Z,26.10
2019-03-31T03:08:44.355Z,28.97
2019-03-31T03:11:13.321Z,27.20
2019-03-31T03:13:40.710Z,27.70
2019-03-31T03:16:09.670Z,26.27
2019-03-31T03:18:37.123Z,21.07
2019-03-31T03:21:04.552Z,28.73
2019-03-31T03:23:31.936Z,20.40
2019-03-31T03:25:59.353Z,26.90
2019-03-31T03:28:26.745Z,25.87
2019-03-31T03:30:54.414Z,21.00
2019-03-31T03:33:22.071Z,26.80
2019-03-31T03:35:49.477Z,25.73
2019-03-31T03:38:16.880Z,23.60
2019-03-31T03:40:44.306Z,19.10
2019-03-31T03:43:11.698Z,29.33
2019-03-31T03:45:39.131Z,21.63
2019-03-31T03:48:06.497Z,25.07
2019-03-31T03:50:33.924Z,25.17
2019-03-31T03:53:01.302Z,24.23
2019-03-31T03:55:28.718Z,24.47
2019-03-31T03:57:56.166Z,25.30
2019-03-31T04:00:23.575Z,23.90
2019-03-31T04:02:50.970Z,28.93
2019-03-31T04:05:18.379Z,28.63
2019-03-31T04:07:45.768Z,20.73
2019-03-31T04:10:31.219Z,26.20
2019-03-31T04:12:58.616Z,26.20
2019-03-31T04:15:26.031Z,22.63
2019-03-31T04:17:53.414Z,27.27
2019-03-31T04:20:20.931Z,29.50
2019-03-31T04:22:48.328Z,28.50
2019-03-31T04:25:15.738Z,30.53
2019-03-31T04:27:43.132Z,32.50
2019-03-31T04:30:10.550Z,27.93
2019-03-31T04:32:38.868Z,28.17
2019-03-31T04:35:06.565Z,22.53
2019-03-31T04:37:33.937Z,26.20
2019-03-31T04:40:01.391Z,23.17
2019-03-31T04:42:28.773Z,25.20
2019-03-31T04:44:56.163Z,25.70
2019-03-31T04:47:23.582Z,26.53
2019-03-31T04:49:50.969Z,27.00
2019-03-31T04:52:18.384Z,23.23
2019-03-31T04:54:45.779Z,31.10
2019-03-31T04:57:13.201Z,22.00
2019-03-31T04:59:40.594Z,23.07
2019-03-31T05:02:08.002Z,25.10
2019-03-31T05:04:35.385Z,27.00
2019-03-31T05:07:02.808Z,32.43
2019-03-31T05:09:30.199Z,24.00
2019-03-31T05:11:57.617Z,21.97
2019-03-31T05:14:25.006Z,20.20
2019-03-31T05:16:52.434Z,23.27
2019-03-31T05:19:19.840Z,23.60
2019-03-31T05:21:47.254Z,30.53
2019-03-31T05:24:14.638Z,27.70
2019-03-31T05:26:42.054Z,28.93
2019-03-31T05:29:09.448Z,24.23
2019-03-31T05:31:36.865Z,21.43
2019-03-31T05:34:18.019Z,35.93
2019-03-31T05:36:33.326Z,27.07
2019-03-31T05:39:00.713Z,19.07
2019-03-31T05:41:28.400Z,24.70
2019-03-31T05:44:05.525Z,23.20
2019-03-31T05:46:24.855Z,26.80
2019-03-31T05:48:52.240Z,24.97
2019-03-31T05:51:19.674Z,20.03
2019-03-31T05:53:47.059Z,26.87
2019-03-31T05:56:14.450Z,23.20
2019-03-31T05:58:41.884Z,21.47
2019-03-31T06:01:09.271Z,23.37
2019-03-31T06:03:36.686Z,22.20
2019-03-31T06:06:04.073Z,22.97
2019-03-31T06:08:31.491Z,25.77
2019-03-31T06:10:58.878Z,20.73
2019-03-31T06:13:26.295Z,23.07
2019-03-31T06:15:53.689Z,28.10
2019-03-31T06:18:21.102Z,19.70
2019-03-31T06:20:48.487Z,29.60
2019-03-31T06:23:15.898Z,24.07
2019-03-31T06:25:43.287Z,39.10
2019-03-31T06:28:10.710Z,40.20
2019-03-31T06:30:38.097Z,37.23
2019-03-31T06:33:05.518Z,26.80
2019-03-31T06:35:32.905Z,24.67
2019-03-31T06:38:00.334Z,22.27
2019-03-31T06:40:27.726Z,26.70
2019-03-31T06:42:55.607Z,32.80
2019-03-31T06:45:23.057Z,22.97
2019-03-31T06:47:50.516Z,23.43
2019-03-31T06:50:17.941Z,21.67
2019-03-31T06:52:45.356Z,22.77
2019-03-31T06:55:12.744Z,23.97
2019-03-31T06:57:40.159Z,21.47
2019-03-31T07:00:07.614Z,27.53
2019-03-31T07:02:35.033Z,29.63
2019-03-31T07:05:02.695Z,25.23
2019-03-31T07:07:30.109Z,23.50
2019-03-31T07:09:57.499Z,26.03
2019-03-31T07:12:25.614Z,22.70
2019-03-31T07:14:53.008Z,32.10
2019-03-31T07:17:20.421Z,27.40
2019-03-31T07:19:47.810Z,28.67
2019-03-31T07:22:15.227Z,31.30
2019-03-31T07:24:42.606Z,33.20
2019-03-31T07:27:09.994Z,31.23
2019-03-31T07:29:37.411Z,21.87
2019-03-31T07:32:04.801Z,28.43
2019-03-31T07:34:32.217Z,25.63
2019-03-31T07:36:59.614Z,29.23
2019-03-31T07:39:27.275Z,33.70
2019-03-31T07:41:54.697Z,28.60
2019-03-31T07:44:22.042Z,25.63
2019-03-31T07:46:49.426Z,23.77
2019-03-31T07:49:16.840Z,31.50
2019-03-31T07:51:44.229Z,29.97
2019-03-31T07:54:11.644Z,25.30
2019-03-31T07:56:39.031Z,27.97
2019-03-31T07:59:06.463Z,25.87
2019-03-31T08:01:33.848Z,26.67
2019-03-31T08:04:01.262Z,21.73
2019-03-31T08:06:28.654Z,26.33
2019-03-31T08:08:56.074Z,26.27
2019-03-31T08:11:23.465Z,27.43
2019-03-31T08:13:50.874Z,25.37
2019-03-31T08:16:18.265Z,25.93
2019-03-31T08:18:45.687Z,23.10
2019-03-31T08:21:13.094Z,25.63
2019-03-31T08:23:40.513Z,25.77
2019-03-31T08:26:07.911Z,25.10
2019-03-31T08:28:35.326Z,26.47
2019-03-31T08:31:02.713Z,30.03
2019-03-31T08:33:30.128Z,31.53
2019-03-31T08:35:57.514Z,24.93
2019-03-31T08:38:24.927Z,31.10
2019-03-31T08:40:52.409Z,24.10
2019-03-31T08:43:19.829Z,30.17
2019-03-31T08:45:47.219Z,26.53
2019-03-31T08:48:14.680Z,29.10
2019-03-31T08:50:42.133Z,26.13
2019-03-31T08:53:09.556Z,32.47
2019-03-31T08:55:36.941Z,32.07
2019-03-31T08:58:04.343Z,29.00
2019-03-31T09:00:33.402Z,31.57
2019-03-31T09:03:00.790Z,31.67
2019-03-31T09:05:28.214Z,30.60
2019-03-31T09:07:55.605Z,33.97
2019-03-31T09:10:23.075Z,30.00
2019-03-31T09:12:50.412Z,28.67
2019-03-31T09:15:17.820Z,33.03
2019-03-31T09:17:45.208Z,35.37
2019-03-31T09:20:14.392Z,31.60
2019-03-31T09:22:41.779Z,33.30
2019-03-31T09:25:10.061Z,33.90
2019-03-31T09:27:37.445Z,28.57
2019-03-31T09:30:08.712Z,34.37
2019-03-31T09:32:36.053Z,38.03
2019-03-31T09:35:04.529Z,32.03
2019-03-31T09:37:31.923Z,35.47
2019-03-31T09:39:59.336Z,31.53
2019-03-31T09:42:26.792Z,39.93
2019-03-31T09:44:54.221Z,40.00
2019-03-31T09:47:21.610Z,42.57
2019-03-31T09:49:49.026Z,32.80
2019-03-31T09:52:16.409Z,38.27
2019-03-31T09:54:43.824Z,41.03
2019-03-31T09:57:11.212Z,35.07
2019-03-31T09:59:38.631Z,37.17
2019-03-31T10:02:06.094Z,35.63
2019-03-31T10:04:33.514Z,34.00
2019-03-31T10:07:01.070Z,33.80
2019-03-31T10:09:28.496Z,46.37
2019-03-31T10:11:55.897Z,39.10
2019-03-31T10:14:23.305Z,34.73
2019-03-31T10:16:50.705Z,34.33
2019-03-31T10:19:18.085Z,34.50
2019-03-31T10:21:45.516Z,32.57
2019-03-31T10:24:12.902Z,36.30
2019-03-31T10:26:40.321Z,32.33
2019-03-31T10:29:08.585Z,34.20
2019-03-31T10:31:36.018Z,36.20
2019-03-31T10:34:03.685Z,31.00
2019-03-31T10:36:43.762Z,37.07
2019-03-31T10:39:00.126Z,39.40
2019-03-31T10:41:30.705Z,32.80
2019-03-31T10:43:56.583Z,42.97
2019-03-31T10:46:24.010Z,40.20
2019-03-31T10:48:51.395Z,37.50
2019-03-31T10:51:18.809Z,31.13
2019-03-31T10:53:46.202Z,34.00
2019-03-31T10:56:13.929Z,41.63
2019-03-31T10:58:41.315Z,33.27
2019-03-31T11:01:08.808Z,31.10
2019-03-31T11:03:36.193Z,23.90
2019-03-31T11:06:03.620Z,26.20
2019-03-31T11:08:31.000Z,28.70
2019-03-31T11:10:58.483Z,28.17
2019-03-31T11:13:25.871Z,25.40
2019-03-31T11:15:53.293Z,21.80
2019-03-31T11:18:20.682Z,20.83
2019-03-31T11:20:48.097Z,20.73
2019-03-31T11:23:17.207Z,46.67
2019-03-31T11:25:44.622Z,20.07
2019-03-31T11:28:12.083Z,14.10
2019-03-31T11:30:39.567Z,15.33
2019-03-31T11:33:07.591Z,12.33
2019-03-31T11:35:35.340Z,12.30
2019-03-31T11:38:02.774Z,14.67
2019-03-31T11:40:30.143Z,11.53
2019-03-31T11:42:57.525Z,21.53
2019-03-31T11:45:24.942Z,15.57
2019-03-31T11:47:52.332Z,20.10
2019-03-31T11:50:20.618Z,21.27
2019-03-31T11:52:48.010Z,18.10
2019-03-31T11:55:15.392Z,18.50
2019-03-31T11:57:42.809Z,15.10
2019-03-31T12:00:12.007Z,22.33
2019-03-31T12:02:39.417Z,20.73
2019-03-31T12:05:06.876Z,16.13
2019-03-31T12:07:46.077Z,17.17
2019-03-31T12:10:05.030Z,15.78
2019-03-31T12:12:32.450Z,21.10
2019-03-31T12:15:00.890Z,19.57
2019-03-31T12:17:28.745Z,14.70
2019-03-31T12:19:56.127Z,16.33
2019-03-31T12:22:25.954Z,18.07
2019-03-31T12:24:53.344Z,52.37
2019-03-31T12:27:20.756Z,12.80
2019-03-31T12:29:48.137Z,21.13
2019-03-31T12:32:15.556Z,11.87
2019-03-31T12:34:42.947Z,14.03
2019-03-31T12:37:10.357Z,19.00
2019-03-31T12:39:37.737Z,16.33
2019-03-31T12:42:05.150Z,11.40
2019-03-31T12:44:32.534Z,10.50
2019-03-31T12:46:59.946Z,5.30
2019-03-31T12:49:27.318Z,9.13
2019-03-31T12:51:55.239Z,9.13
2019-03-31T12:54:22.713Z,10.40
2019-03-31T12:56:50.136Z,10.83
2019-03-31T12:59:17.526Z,11.67
2019-03-31T13:01:44.925Z,9.83
2019-03-31T13:04:12.310Z,10.93
2019-03-31T13:06:39.730Z,7.40
2019-03-31T13:09:07.882Z,10.27
2019-03-31T13:11:35.286Z,7.00
2019-03-31T13:14:02.677Z,11.17
2019-03-31T13:16:30.056Z,10.77
2019-03-31T13:18:57.472Z,7.10
2019-03-31T13:21:24.928Z,11.63
2019-03-31T13:23:52.272Z,9.20
2019-03-31T13:26:19.647Z,9.53
2019-03-31T13:28:47.048Z,8.63
2019-03-31T13:31:14.442Z,10.20
2019-03-31T13:33:41.876Z,17.70
2019-03-31T13:36:09.421Z,10.87
2019-03-31T13:38:36.829Z,7.47
2019-03-31T13:41:04.214Z,15.13
2019-03-31T13:43:31.617Z,6.83
2019-03-31T13:46:00.320Z,9.40
2019-03-31T13:48:27.780Z,6.07
2019-03-31T13:50:55.166Z,6.40
2019-03-31T13:53:22.572Z,5.83
2019-03-31T13:55:49.954Z,8.90
2019-03-31T13:58:18.914Z,4.53
2019-03-31T14:00:46.398Z,6.97
2019-03-31T14:03:13.799Z,6.63
2019-03-31T14:05:41.243Z,7.07
2019-03-31T14:08:09.421Z,7.53
2019-03-31T14:10:36.793Z,6.93
2019-03-31T14:13:04.373Z,4.67
2019-03-31T14:15:31.825Z,5.97
2019-03-31T14:17:59.286Z,36.73
2019-03-31T14:20:26.625Z,7.90
2019-03-31T14:22:54.037Z,6.77
2019-03-31T14:25:21.415Z,7.63
2019-03-31T14:27:48.824Z,6.00
2019-03-31T14:30:16.381Z,6.83
2019-03-31T14:32:43.789Z,7.03
2019-03-31T14:35:11.241Z,7.23
2019-03-31T14:37:38.657Z,5.73
2019-03-31T14:40:07.591Z,7.50
2019-03-31T14:42:35.146Z,5.40
2019-03-31T14:45:02.638Z,7.27
2019-03-31T14:47:30.020Z,9.73
2019-03-31T14:49:57.425Z,6.10
2019-03-31T14:52:27.511Z,6.57
2019-03-31T14:54:55.842Z,9.23
2019-03-31T14:57:22.907Z,5.73
2019-03-31T14:59:50.305Z,6.00
2019-03-31T15:02:17.704Z,10.23
2019-03-31T15:04:45.105Z,3.97
2019-03-31T15:07:12.488Z,5.57
2019-03-31T15:09:39.906Z,4.87
2019-03-31T15:12:07.276Z,5.80
2019-03-31T15:14:34.687Z,6.00
2019-03-31T15:17:02.071Z,37.50
2019-03-31T15:19:29.478Z,7.40
2019-03-31T15:21:56.858Z,4.83
2019-03-31T15:24:24.282Z,5.13
2019-03-31T15:26:51.681Z,3.70
2019-03-31T15:29:19.090Z,8.43
2019-03-31T15:31:46.483Z,12.97
2019-03-31T15:34:13.916Z,4.10
2019-03-31T15:36:41.300Z,5.10
2019-03-31T15:39:09.496Z,6.75
2019-03-31T15:41:36.970Z,17.17
2019-03-31T15:44:04.554Z,3.40
2019-03-31T15:46:31.936Z,5.20
2019-03-31T15:48:59.321Z,6.30
2019-03-31T15:51:26.797Z,4.07
2019-03-31T15:53:54.104Z,5.07
2019-03-31T15:56:21.585Z,5.40
2019-03-31T15:58:48.958Z,5.50
2019-03-31T16:01:16.438Z,6.77
2019-03-31T16:03:43.822Z,6.20
2019-03-31T16:06:11.241Z,5.07
2019-03-31T16:08:38.622Z,7.00
2019-03-31T16:11:06.031Z,6.47
2019-03-31T16:13:33.419Z,3.70
2019-03-31T16:16:00.840Z,6.93
2019-03-31T16:18:28.220Z,5.40
2019-03-31T16:20:56.108Z,10.23
2019-03-31T16:23:23.504Z,6.30
2019-03-31T16:25:52.541Z,9.00
2019-03-31T16:28:20.041Z,4.77
2019-03-31T16:30:47.468Z,10.25
2019-03-31T16:33:14.850Z,29.03
2019-03-31T16:35:42.258Z,9.97
2019-03-31T16:38:09.646Z,6.80
2019-03-31T16:40:37.064Z,10.73
2019-03-31T16:43:04.455Z,7.20
2019-03-31T16:45:31.866Z,8.23
2019-03-31T16:47:59.239Z,5.87
2019-03-31T16:50:26.648Z,5.97
2019-03-31T16:52:54.119Z,5.90
2019-03-31T16:55:21.526Z,5.80
2019-03-31T16:57:48.912Z,9.47
2019-03-31T17:00:16.415Z,6.20
2019-03-31T17:02:43.848Z,6.23
2019-03-31T17:05:21.629Z,8.30
2019-03-31T17:07:40.598Z,6.10
2019-03-31T17:10:08.990Z,12.03
2019-03-31T17:12:36.369Z,10.07
2019-03-31T17:15:05.426Z,8.20
2019-03-31T17:17:32.826Z,9.73
2019-03-31T17:20:00.365Z,10.60
2019-03-31T17:22:27.825Z,9.00
2019-03-31T17:24:55.206Z,11.00
2019-03-31T17:27:22.623Z,13.13
2019-03-31T17:29:50.008Z,11.80
2019-03-31T17:32:17.489Z,11.90
2019-03-31T17:34:44.887Z,13.10
2019-03-31T17:37:12.300Z,14.07
2019-03-31T17:39:39.678Z,17.17
2019-03-31T17:42:07.086Z,13.93
2019-03-31T17:44:34.473Z,15.47
2019-03-31T17:47:01.900Z,23.17
2019-03-31T17:49:29.288Z,25.47
2019-03-31T17:51:56.700Z,11.70
2019-03-31T17:54:24.085Z,13.50
2019-03-31T17:56:51.502Z,17.27
2019-03-31T17:59:19.010Z,11.20
2019-03-31T18:01:46.474Z,9.30
2019-03-31T18:04:13.842Z,13.30
2019-03-31T18:06:41.259Z,10.70
2019-03-31T18:09:09.070Z,14.00
2019-03-31T18:11:36.759Z,12.47
2019-03-31T18:14:06.834Z,15.10
2019-03-31T18:16:33.470Z,18.20
2019-03-31T18:19:00.991Z,19.30
2019-03-31T18:21:28.376Z,23.70
2019-03-31T18:23:56.044Z,16.60
2019-03-31T18:26:23.549Z,18.83
2019-03-31T18:28:50.906Z,14.70
2019-03-31T18:31:18.321Z,16.13
2019-03-31T18:33:45.709Z,15.37
2019-03-31T18:36:13.126Z,23.40
2019-03-31T18:38:40.513Z,21.20
2019-03-31T18:41:07.977Z,19.73
2019-03-31T18:43:35.341Z,19.50
2019-03-31T18:46:02.826Z,18.53
2019-03-31T18:48:30.213Z,20.50
2019-03-31T18:50:57.634Z,21.43
2019-03-31T18:53:41.734Z,18.93
2019-03-31T18:56:25.489Z,22.97
2019-03-31T18:59:03.317Z,18.37
2019-03-31T19:01:41.079Z,22.63
2019-03-31T19:04:16.629Z,21.15
2019-03-31T19:06:45.703Z,20.33
2019-03-31T19:09:20.639Z,20.20
2019-03-31T19:11:49.696Z,27.60
2019-03-31T19:14:30.615Z,23.93
2019-03-31T19:16:59.672Z,23.40
2019-03-31T19:19:28.694Z,23.50
2019-03-31T19:21:57.781Z,21.00
2019-03-31T19:24:35.587Z,21.43
2019-03-31T19:27:07.314Z,21.73
2019-03-31T19:29:36.329Z,20.17
2019-03-31T19:32:08.414Z,22.60
2019-03-31T19:34:55.536Z,22.90
2019-03-31T19:37:30.350Z,23.93
2019-03-31T19:40:05.262Z,24.43
2019-03-31T19:42:50.343Z,23.70
2019-03-31T19:45:22.319Z,21.23
2019-03-31T19:48:07.250Z,24.23
2019-03-31T19:50:54.381Z,22.13
2019-03-31T19:53:35.526Z,25.37
2019-03-31T19:56:07.776Z,22.60
2019-03-31T19:58:51.309Z,23.43
2019-03-31T20:01:31.897Z,27.43
2019-03-31T20:04:06.613Z,25.87
2019-03-31T20:06:38.639Z,30.10
2019-03-31T20:09:26.950Z,30.97
2019-03-31T20:12:01.843Z,33.13
2019-03-31T20:14:30.946Z,41.70
2019-03-31T20:17:02.774Z,34.67
2019-03-31T20:19:34.539Z,32.63
2019-03-31T20:22:15.429Z,30.77
2019-03-31T20:24:44.460Z,35.03
2019-03-31T20:27:16.503Z,37.90
2019-03-31T20:29:48.502Z,28.77
2019-03-31T20:32:17.556Z,34.63
2019-03-31T20:35:02.743Z,30.60
2019-03-31T20:37:31.961Z,32.57
2019-03-31T20:40:00.993Z,32.33
2019-03-31T20:42:38.793Z,37.73
2019-03-31T20:45:07.259Z,30.23
2019-03-31T20:47:34.668Z,35.70
2019-03-31T20:50:02.128Z,35.77
2019-03-31T20:52:29.548Z,31.07
2019-03-31T20:54:56.933Z,33.27
2019-03-31T20:57:24.318Z,36.27
2019-03-31T20:59:51.732Z,41.03
2019-03-31T21:02:19.128Z,34.17
2019-03-31T21:04:46.545Z,43.10
2019-03-31T21:07:13.952Z,42.40
2019-03-31T21:09:45.056Z,37.70
2019-03-31T21:12:10.396Z,39.87
2019-03-31T21:14:37.815Z,35.20
2019-03-31T21:17:05.209Z,42.93
2019-03-31T21:19:32.631Z,40.83
2019-03-31T21:22:00.017Z,39.87
2019-03-31T21:24:27.428Z,39.07
2019-03-31T21:26:54.815Z,40.00
2019-03-31T21:29:22.237Z,38.93
2019-03-31T21:31:49.634Z,42.40
2019-03-31T21:34:17.113Z,37.93
2019-03-31T21:36:44.501Z,39.80
2019-03-31T21:39:11.918Z,34.17
2019-03-31T21:41:39.305Z,40.63
2019-03-31T21:44:06.720Z,42.93
2019-03-31T21:46:34.105Z,47.80
2019-03-31T21:49:01.521Z,37.77
2019-03-31T21:51:28.924Z,48.10
2019-03-31T21:53:56.368Z,39.23
2019-03-31T21:56:23.749Z,49.50
2019-03-31T21:58:51.168Z,43.77
2019-03-31T22:01:18.630Z,42.67
2019-03-31T22:03:46.078Z,53.17
2019-03-31T22:06:13.464Z,41.73
2019-03-31T22:08:40.863Z,47.13
2019-03-31T22:11:08.521Z,42.53
2019-03-31T22:13:36.384Z,41.40
2019-03-31T22:16:03.777Z,46.97
2019-03-31T22:18:31.173Z,54.70
2019-03-31T22:20:58.588Z,45.73
2019-03-31T22:23:25.976Z,47.80
2019-03-31T22:25:53.411Z,42.65
2019-03-31T22:28:20.814Z,49.07
2019-03-31T22:30:48.475Z,41.77
2019-03-31T22:33:15.901Z,45.20
2019-03-31T22:35:44.968Z,51.55
2019-03-31T22:38:12.360Z,51.60
2019-03-31T22:40:39.799Z,52.67
2019-03-31T22:43:08.034Z,46.70
2019-03-31T22:45:35.488Z,48.25
2019-03-31T22:48:02.873Z,46.90
2019-03-31T22:50:30.289Z,52.40
2019-03-31T22:52:57.684Z,52.73
2019-03-31T22:55:25.097Z,53.40
2019-03-31T22:57:52.486Z,48.10
2019-03-31T23:00:21.605Z,53.37
2019-03-31T23:02:48.996Z,57.90
2019-03-31T23:05:16.480Z,51.80
2019-03-31T23:07:43.866Z,50.77
2019-03-31T23:10:11.360Z,59.33
2019-03-31T23:12:38.815Z,63.07
2019-03-31T23:15:06.504Z,50.17
2019-03-31T23:17:33.967Z,50.40
2019-03-31T23:20:01.450Z,50.80
2019-03-31T23:22:28.822Z,55.40
2019-03-31T23:24:56.245Z,53.43
2019-03-31T23:27:23.636Z,56.30
2019-03-31T23:29:51.025Z,53.00
2019-03-31T23:32:18.440Z,50.27
2019-03-31T23:34:45.823Z,56.73
2019-03-31T23:37:13.250Z,53.43
2019-03-31T23:39:40.642Z,62.00
2019-03-31T23:42:08.061Z,55.13
2019-03-31T23:44:35.451Z,55.23
2019-03-31T23:47:02.872Z,61.10
2019-03-31T23:49:30.270Z,62.23
2019-03-31T23:51:57.691Z,63.20
2019-03-31T23:54:25.079Z,60.93
2019-03-31T23:56:52.493Z,56.73
2019-03-31T23:59:19.882Z,56.13
